Benton, Ohio
Current Conditions -  °F | °C
As of 4:53 AM on Thursday 29 Jan 2015 (Local Time) from KMNN Reporting Station
Overcast Overcast  
Wind Chill: 18°   Ceiling: 8000
Heat Index: 30°   Visibility: 10mi
Dew Point: 19°   Wind: 18mph
Humidity: 64%   Direction: 180°S
Pressure: 29.95"   Gusts: NA
Location:  40.948°N, 83.1346°W
Report Text: KMNN 290953Z AUTO 18016KT 10SM OVC080 M01/M07 A2995 RMK AO2 SLP156 T10111072 TSNO
Loading
Personal Weather Stations






























Interactive Weather Map New forecast layout! Learn more

10-Day Weather Forecast

Advertisements
Track Severe Weather on mobile